Time;durP1;ratioP1;P1;durP2;ratioP2;P2;SDS_P1;SDS_P2;PMS_P1;PMS_P2;Temp;Humidity;BMP_temperature;BMP_pressure;BME280_temperature;BME280_humidity;BME280_pressure;Samples;Min_cycle;Max_cycle;Signal;HPM_P1;HPM_P2
2023/03/22 00:00:53;;;;;;;8.00;3.40;;;10.80;45.00;;;;;;5051559;28;20396;-59
2023/03/22 00:03:20;;;;;;;7.93;3.40;;;10.70;58.60;;;;;;5051922;28;20377;-59
2023/03/22 00:05:46;;;;;;;7.63;3.25;;;10.70;99.90;;;;;;5052675;28;20401;-59
2023/03/22 00:08:12;;;;;;;8.45;3.25;;;10.60;99.90;;;;;;5052387;28;20389;-59
2023/03/22 00:10:39;;;;;;;8.20;3.60;;;10.50;99.90;;;;;;5052692;28;20386;-59
2023/03/22 00:13:07;;;;;;;8.65;3.45;;;10.50;99.90;;;;;;5051632;28;20716;-59
2023/03/22 00:15:33;;;;;;;8.87;3.63;;;10.40;99.90;;;;;;5052573;28;20381;-59
2023/03/22 00:18:00;;;;;;;13.25;3.80;;;10.50;99.90;;;;;;5052225;28;20427;-61
2023/03/22 00:20:29;;;;;;;9.35;3.97;;;10.60;99.90;;;;;;5062531;28;20391;-59
2023/03/22 00:22:55;;;;;;;9.18;4.03;;;10.70;99.90;;;;;;5071936;28;20488;-59
2023/03/22 00:25:21;;;;;;;8.30;3.70;;;10.60;99.90;;;;;;5069424;28;20515;-59
2023/03/22 00:27:47;;;;;;;11.48;4.40;;;10.70;99.90;;;;;;5061264;28;20466;-59
2023/03/22 00:30:13;;;;;;;8.65;3.72;;;10.70;99.90;;;;;;5052433;28;20397;-59
2023/03/22 00:32:41;;;;;;;8.73;3.85;;;10.70;99.90;;;;;;5063630;28;20385;-60
2023/03/22 00:35:08;;;;;;;8.82;4.00;;;10.80;99.90;;;;;;5062305;28;20392;-59
2023/03/22 00:37:37;;;;;;;9.75;3.95;;;10.60;99.90;;;;;;5071586;28;20537;-59
2023/03/22 00:40:08;;;;;;;9.38;4.10;;;10.50;99.90;;;;;;5051802;28;20529;-59
2023/03/22 00:42:35;;;;;;;8.90;4.30;;;10.40;99.90;;;;;;5061692;28;20390;-59
2023/03/22 00:45:01;;;;;;;10.00;3.97;;;10.20;99.90;;;;;;5058797;28;20825;-66
2023/03/22 00:47:26;;;;;;;9.82;4.55;;;10.20;99.90;;;;;;5066567;28;20471;-59
2023/03/22 00:49:52;;;;;;;13.37;4.40;;;10.10;1.00;;;;;;5051669;28;20402;-59
2023/03/22 00:52:17;;;;;;;10.13;4.30;;;10.00;1.00;;;;;;5052589;28;21294;-59
2023/03/22 00:54:43;;;;;;;8.73;4.10;;;10.10;59.60;;;;;;5052236;28;20414;-59
2023/03/22 00:57:09;;;;;;;9.33;3.80;;;10.10;60.60;;;;;;5051062;28;20939;-59
2023/03/22 00:59:38;;;;;;;8.75;3.92;;;10.10;1.00;;;;;;5066077;28;20392;-59
2023/03/22 01:02:05;;;;;;;8.37;3.77;;;11.00;1.00;;;;;;5068892;28;20734;-59
2023/03/22 01:04:34;;;;;;;11.10;3.80;;;10.70;1.00;;;;;;5071470;28;20423;-58
2023/03/22 01:07:02;;;;;;;9.80;3.90;;;10.20;1.00;;;;;;5051668;28;20397;-61
2023/03/22 01:09:29;;;;;;;8.90;3.37;;;10.10;1.00;;;;;;5052698;28;20389;-59
2023/03/22 01:11:56;;;;;;;9.07;3.58;;;10.10;1.00;;;;;;5051428;28;20385;-58
2023/03/22 01:14:24;;;;;;;10.27;3.90;;;10.20;1.00;;;;;;5068648;28;20391;-59
2023/03/22 01:16:50;;;;;;;8.60;3.40;;;10.20;1.00;;;;;;5063372;28;20399;-58
2023/03/22 01:19:16;;;;;;;8.75;2.83;;;10.30;99.90;;;;;;5065817;28;20505;-59
2023/03/22 01:21:41;;;;;;;8.60;2.90;;;10.40;99.90;;;;;;5051254;28;20933;-59
2023/03/22 01:24:07;;;;;;;7.10;3.10;;;10.50;99.90;;;;;;5062604;28;20384;-59
2023/03/22 01:26:33;;;;;;;8.23;3.07;;;10.60;99.90;;;;;;5063826;28;20921;-59
2023/03/22 01:28:58;;;;;;;8.63;2.70;;;10.80;99.90;;;;;;5050781;28;20448;-60
2023/03/22 01:31:24;;;;;;;10.10;2.90;;;10.60;99.90;;;;;;5062273;28;20440;-59
2023/03/22 01:33:50;;;;;;;8.60;2.70;;;10.60;99.90;;;;;;5051143;28;20404;-59
2023/03/22 01:36:15;;;;;;;7.90;2.83;;;10.70;99.90;;;;;;5050198;28;20393;-59
2023/03/22 01:38:41;;;;;;;7.78;2.83;;;10.60;95.30;;;;;;5052154;28;20427;-58
2023/03/22 01:41:07;;;;;;;8.60;3.00;;;10.50;99.90;;;;;;5062248;28;20445;-59
2023/03/22 01:43:32;;;;;;;7.85;2.70;;;10.70;74.50;;;;;;5065495;28;20382;-59
2023/03/22 01:45:59;;;;;;;8.50;2.50;;;10.80;12.50;;;;;;5050912;28;20730;-59
2023/03/22 01:48:35;;;;;;;7.13;2.60;;;10.80;1.00;;;;;;5050718;28;20859;-58
2023/03/22 01:51:18;;;;;;;7.47;3.20;;;10.60;1.00;;;;;;5030916;28;20375;-61
2023/03/22 01:53:52;;;;;;;7.63;3.05;;;10.40;23.70;;;;;;5030964;28;20415;-58
2023/03/22 01:56:21;;;;;;;7.78;2.42;;;10.20;99.90;;;;;;5030127;28;20383;-58
2023/03/22 01:58:48;;;;;;;9.10;3.70;;;10.20;99.90;;;;;;5030546;28;20395;-58
2023/03/22 02:01:14;;;;;;;7.30;2.60;;;10.10;99.90;;;;;;5034405;28;20390;-58
2023/03/22 02:03:46;;;;;;;8.10;3.03;;;10.00;99.90;;;;;;5050504;28;20877;-59
2023/03/22 02:06:12;;;;;;;6.90;2.60;;;9.90;99.90;;;;;;5049495;28;20773;-58
2023/03/22 02:08:39;;;;;;;7.32;2.80;;;9.90;99.90;;;;;;5050613;28;20439;-58
2023/03/22 02:11:06;;;;;;;8.02;2.70;;;9.70;99.90;;;;;;5049593;28;20384;-58
2023/03/22 02:13:55;;;;;;;7.30;2.55;;;9.40;99.90;;;;;;5050199;28;20403;-59
2023/03/22 02:16:25;;;;;;;8.00;2.60;;;9.20;1.00;;;;;;5049759;28;20716;-59
2023/03/22 02:19:22;;;;;;;7.03;2.50;;;9.00;99.90;;;;;;5062723;28;20403;-59
2023/03/22 02:21:54;;;;;;;7.50;2.50;;;9.10;99.90;;;;;;5061663;28;20753;-59
2023/03/22 02:24:54;;;;;;;7.82;2.63;;;9.10;99.90;;;;;;5069011;28;20884;-58
2023/03/22 02:27:45;;;;;;;6.80;2.67;;;9.00;99.90;;;;;;5043177;28;20413;-59
2023/03/22 02:30:11;;;;;;;6.60;2.33;;;9.00;99.90;;;;;;5021705;28;20756;-58
2023/03/22 02:32:42;;;;;;;7.40;2.90;;;8.80;99.90;;;;;;5021541;28;20403;-58
2023/03/22 02:35:14;;;;;;;7.40;2.60;;;8.80;1.00;;;;;;5028868;28;20395;-59
2023/03/22 02:37:57;;;;;;;7.32;2.97;;;8.70;1.00;;;;;;5015982;28;20420;-58
2023/03/22 02:41:01;;;;;;;6.93;2.90;;;8.70;1.00;;;;;;5016055;28;21008;-58
2023/03/22 02:43:37;;;;;;;8.60;3.10;;;8.60;76.70;;;;;;4993340;28;20409;-58
2023/03/22 02:46:29;;;;;;;10.20;3.30;;;8.60;99.90;;;;;;5028888;28;20399;-60
2023/03/22 02:49:00;;;;;;;6.93;2.70;;;8.60;1.00;;;;;;4990687;28;20394;-58
2023/03/22 02:51:35;;;;;;;7.50;3.30;;;8.50;1.00;;;;;;5011634;28;20426;-58
2023/03/22 02:54:25;;;;;;;8.65;3.60;;;8.50;54.30;;;;;;5027955;28;20437;-60
2023/03/22 02:57:15;;;;;;;8.50;3.00;;;8.50;99.90;;;;;;5025934;28;20896;-58
2023/03/22 02:59:42;;;;;;;7.72;3.00;;;9.70;99.90;;;;;;5019889;28;20407;-58
2023/03/22 03:02:16;;;;;;;8.77;3.10;;;8.50;99.90;;;;;;5013108;28;20389;-58
2023/03/22 03:04:46;;;;;;;7.05;3.13;;;8.50;1.00;;;;;;5015554;28;20427;-58
2023/03/22 03:07:17;;;;;;;9.23;3.20;;;8.40;1.00;;;;;;5028417;28;20414;-59
2023/03/22 03:09:43;;;;;;;9.55;3.20;;;8.50;72.10;;;;;;5015997;28;20404;-58
2023/03/22 03:12:22;;;;;;;8.67;2.97;;;8.50;1.00;;;;;;5012591;28;20394;-61
2023/03/22 03:14:48;;;;;;;7.67;3.20;;;8.50;1.00;;;;;;5028830;28;20440;-59
2023/03/22 03:17:50;;;;;;;8.90;3.20;;;9.00;1.00;;;;;;5018647;28;20435;-58
2023/03/22 03:20:47;;;;;;;7.20;3.00;;;8.40;99.90;;;;;;5022488;28;20396;-58
2023/03/22 03:23:48;;;;;;;8.60;3.20;;;8.40;1.00;;;;;;5013643;28;20409;-59
2023/03/22 03:26:13;;;;;;;7.85;3.08;;;8.40;99.90;;;;;;5008790;28;20416;-59
2023/03/22 03:29:00;;;;;;;8.00;3.50;;;8.40;99.90;;;;;;5036763;28;20529;-58
2023/03/22 03:31:29;;;;;;;8.10;3.60;;;8.30;99.90;;;;;;5060259;28;20403;-58
2023/03/22 03:34:12;;;;;;;10.38;3.70;;;8.10;1.00;;;;;;5068051;28;20383;-58
2023/03/22 03:36:43;;;;;;;7.80;3.13;;;8.00;99.90;;;;;;5043722;28;20393;-60
2023/03/22 03:39:12;;;;;;;9.10;3.42;;;7.90;1.00;;;;;;5048365;28;20397;-61
2023/03/22 03:41:39;;;;;;;7.80;3.47;;;7.80;1.00;;;;;;5050632;28;20381;-60
2023/03/22 03:44:05;;;;;;;7.30;2.90;;;7.80;31.40;;;;;;5068496;28;20391;-60
2023/03/22 03:46:31;;;;;;;7.53;3.00;;;8.80;99.90;;;;;;5057113;28;20389;-58
2023/03/22 03:48:58;;;;;;;7.77;3.23;;;7.80;99.90;;;;;;5049115;28;20397;-58
2023/03/22 03:51:26;;;;;;;7.75;3.40;;;8.50;99.90;;;;;;5061934;28;20399;-58
2023/03/22 03:53:51;;;;;;;8.15;2.88;;;7.80;99.90;;;;;;5068907;28;20483;-58
2023/03/22 03:56:17;;;;;;;7.93;3.40;;;7.80;99.90;;;;;;5051203;28;20899;-58
2023/03/22 03:58:42;;;;;;;8.93;3.57;;;7.70;99.90;;;;;;5053611;28;20427;-58
2023/03/22 04:01:08;;;;;;;9.02;3.03;;;8.30;99.90;;;;;;5067911;28;20573;-59
2023/03/22 04:03:34;;;;;;;8.40;3.70;;;7.70;99.90;;;;;;5056609;28;20396;-58
2023/03/22 04:05:59;;;;;;;7.93;2.95;;;7.70;99.90;;;;;;5071037;28;20429;-58
2023/03/22 04:08:26;;;;;;;8.80;2.92;;;8.40;99.90;;;;;;5056191;28;21235;-59
2023/03/22 04:10:52;;;;;;;6.93;2.90;;;7.70;99.90;;;;;;5041021;28;20801;-59
2023/03/22 04:13:20;;;;;;;11.70;3.90;;;7.70;99.90;;;;;;5069105;28;20404;-59
2023/03/22 04:15:46;;;;;;;8.07;2.97;;;7.70;99.90;;;;;;5072064;28;20384;-59
2023/03/22 04:18:12;;;;;;;10.30;3.15;;;9.70;99.90;;;;;;5060297;28;20432;-59
2023/03/22 04:20:40;;;;;;;8.18;3.47;;;7.80;1.00;;;;;;5055467;28;20391;-59
2023/03/22 04:23:09;;;;;;;7.95;3.30;;;8.40;30.20;;;;;;5064410;28;20415;-61
2023/03/22 04:25:36;;;;;;;8.05;2.97;;;7.80;99.90;;;;;;5070039;28;20406;-59
2023/03/22 04:28:03;;;;;;;9.43;3.50;;;7.80;1.00;;;;;;5058881;28;20475;-59
2023/03/22 04:30:29;;;;;;;10.40;3.47;;;7.80;15.70;;;;;;5052139;28;20382;-59
2023/03/22 04:32:55;;;;;;;7.17;3.20;;;9.50;13.00;;;;;;5052355;28;20413;-59
2023/03/22 04:35:21;;;;;;;7.43;2.70;;;7.80;1.00;;;;;;5051526;28;20461;-59
2023/03/22 04:37:47;;;;;;;7.67;3.30;;;7.80;1.00;;;;;;5052320;28;20409;-58
2023/03/22 04:40:19;;;;;;;7.00;3.03;;;7.80;1.00;;;;;;5051424;28;20739;-59
2023/03/22 04:42:45;;;;;;;11.45;3.55;;;7.80;1.00;;;;;;5051830;28;20850;-58
2023/03/22 04:45:12;;;;;;;8.00;3.22;;;7.80;1.00;;;;;;5051089;28;20412;-59
2023/03/22 04:47:38;;;;;;;8.63;3.33;;;7.80;1.00;;;;;;5052963;28;20398;-59
2023/03/22 04:50:05;;;;;;;9.30;3.40;;;7.80;1.00;;;;;;5051303;28;20401;-61
2023/03/22 04:52:31;;;;;;;8.40;3.60;;;7.90;1.00;;;;;;5071505;28;20388;-59
2023/03/22 04:54:56;;;;;;;7.47;3.22;;;7.90;1.00;;;;;;5068080;28;20419;-59
2023/03/22 04:57:23;;;;;;;8.73;3.60;;;8.00;99.90;;;;;;5068872;28;20415;-59
2023/03/22 04:59:49;;;;;;;9.10;3.60;;;8.10;93.90;;;;;;5051752;28;20406;-59
2023/03/22 05:02:15;;;;;;;10.23;3.47;;;8.10;1.00;;;;;;5054317;28;20427;-59
2023/03/22 05:04:41;;;;;;;8.10;3.50;;;8.10;58.60;;;;;;5057553;28;20392;-59
2023/03/22 05:07:06;;;;;;;10.23;3.73;;;8.10;1.00;;;;;;5054612;28;20401;-61
2023/03/22 05:09:32;;;;;;;8.20;3.30;;;8.60;1.00;;;;;;5067707;28;20482;-59
2023/03/22 05:11:57;;;;;;;10.03;3.43;;;7.90;1.00;;;;;;5067240;28;20401;-59
2023/03/22 05:14:23;;;;;;;7.50;3.20;;;7.80;32.90;;;;;;5050613;28;20507;-59
2023/03/22 05:16:49;;;;;;;10.20;3.50;;;7.80;99.90;;;;;;5050996;28;20413;-59
2023/03/22 05:19:14;;;;;;;8.60;3.28;;;7.70;99.90;;;;;;5051589;28;20397;-59
2023/03/22 05:21:42;;;;;;;10.05;3.53;;;7.80;42.80;;;;;;5052718;28;20388;-58
2023/03/22 05:24:09;;;;;;;7.70;2.90;;;7.60;99.90;;;;;;5051891;28;20469;-60
2023/03/22 05:26:36;;;;;;;9.32;3.20;;;7.60;1.00;;;;;;5054797;28;20421;-59
2023/03/22 05:29:03;;;;;;;9.68;3.45;;;7.70;1.00;;;;;;5070839;28;20435;-58
2023/03/22 05:31:29;;;;;;;8.35;2.92;;;7.80;1.00;;;;;;5065735;28;20907;-59
2023/03/22 05:33:55;;;;;;;8.23;3.03;;;8.00;1.00;;;;;;5051304;28;20386;-59
2023/03/22 05:36:22;;;;;;;8.57;3.20;;;8.00;1.00;;;;;;5066238;28;20396;-59
2023/03/22 05:38:49;;;;;;;7.88;3.38;;;8.10;99.90;;;;;;5060967;28;21514;-59
2023/03/22 05:41:18;;;;;;;8.18;3.33;;;8.20;1.00;;;;;;5052114;28;20460;-59
2023/03/22 05:43:43;;;;;;;7.82;3.30;;;8.20;1.00;;;;;;5069201;28;20400;-59
2023/03/22 05:46:10;;;;;;;7.80;3.10;;;8.30;99.90;;;;;;5055825;28;20772;-59
2023/03/22 05:48:37;;;;;;;8.25;3.40;;;8.50;1.00;;;;;;5050951;28;20447;-59
2023/03/22 05:51:16;;;;;;;8.73;3.35;;;8.60;1.00;;;;;;5051125;28;20461;-59
2023/03/22 05:53:43;;;;;;;10.15;3.58;;;8.60;53.60;;;;;;5050899;28;20387;-60
2023/03/22 05:56:08;;;;;;;8.60;3.70;;;8.80;1.00;;;;;;5050167;28;20394;-61
2023/03/22 05:58:34;;;;;;;6.90;2.72;;;8.80;1.00;;;;;;5050670;28;20451;-59
2023/03/22 06:01:05;;;;;;;7.50;2.97;;;8.90;99.90;;;;;;5050569;28;20878;-59
2023/03/22 06:03:31;;;;;;;8.10;3.20;;;9.10;99.90;;;;;;5050089;28;20842;-59
2023/03/22 06:05:56;;;;;;;8.23;3.00;;;9.20;99.90;;;;;;5050450;28;20445;-59
2023/03/22 06:08:23;;;;;;;8.60;2.83;;;9.50;1.00;;;;;;5049810;28;20393;-59
2023/03/22 06:10:50;;;;;;;9.57;3.10;;;10.00;1.00;;;;;;5050206;28;20389;-59
2023/03/22 06:13:18;;;;;;;7.10;2.60;;;10.40;99.90;;;;;;5047901;28;20398;-59
2023/03/22 06:15:44;;;;;;;10.35;2.90;;;10.80;99.90;;;;;;5050170;28;20454;-59
2023/03/22 06:18:10;;;;;;;8.35;3.30;;;11.40;99.90;;;;;;5061466;28;20883;-59
2023/03/22 06:20:37;;;;;;;8.90;2.67;;;12.10;16.80;;;;;;5054517;28;20450;-59
2023/03/22 06:23:03;;;;;;;7.90;3.10;;;12.60;1.00;;;;;;5062170;28;20388;-59
2023/03/22 06:25:29;;;;;;;8.95;3.70;;;13.30;1.00;;;;;;5060255;28;20727;-59
2023/03/22 06:27:54;;;;;;;9.83;3.20;;;13.50;1.00;;;;;;5060619;28;20397;-58
2023/03/22 06:30:20;;;;;;;7.73;2.97;;;13.40;1.00;;;;;;5049595;28;20935;-59
2023/03/22 06:32:46;;;;;;;9.15;3.55;;;13.20;1.00;;;;;;5049642;28;20392;-59
2023/03/22 06:35:11;;;;;;;7.80;2.60;;;13.20;1.00;;;;;;5049090;28;20396;-59
2023/03/22 06:37:37;;;;;;;8.55;2.90;;;13.50;1.00;;;;;;5049958;28;20504;-59
2023/03/22 06:40:03;;;;;;;8.80;2.60;;;14.00;1.00;;;;;;5053775;28;20454;-59
2023/03/22 06:42:29;;;;;;;7.90;2.92;;;14.30;1.00;;;;;;5048951;28;20396;-59
2023/03/22 06:44:56;;;;;;;8.45;3.00;;;14.70;1.00;;;;;;5053245;28;20385;-59
2023/03/22 06:47:22;;;;;;;9.00;2.95;;;15.00;1.00;;;;;;5048893;28;20483;-59
2023/03/22 06:49:47;;;;;;;8.90;3.00;;;15.10;99.90;;;;;;5069027;28;20521;-59
2023/03/22 06:52:13;;;;;;;6.50;2.20;;;15.30;99.90;;;;;;5069138;28;20887;-60
2023/03/22 06:54:39;;;;;;;8.40;2.80;;;15.40;99.90;;;;;;5063663;28;20389;-59
2023/03/22 06:57:05;;;;;;;7.10;2.80;;;15.50;99.90;;;;;;5060107;28;20409;-62
2023/03/22 06:59:30;;;;;;;7.15;2.90;;;15.60;99.90;;;;;;5049193;28;20895;-59
2023/03/22 07:01:56;;;;;;;6.70;2.30;;;15.90;99.90;;;;;;5049518;28;20465;-59
2023/03/22 07:04:22;;;;;;;7.57;3.00;;;16.20;99.90;;;;;;5044961;28;20409;-62
2023/03/22 07:06:48;;;;;;;7.70;2.90;;;16.80;99.90;;;;;;5045787;28;20404;-60
2023/03/22 07:09:14;;;;;;;6.57;2.90;;;17.10;99.90;;;;;;5049564;28;20460;-60
2023/03/22 07:11:39;;;;;;;9.13;3.20;;;17.90;99.90;;;;;;5049579;28;20389;-60
2023/03/22 07:14:05;;;;;;;7.60;2.87;;;17.80;99.90;;;;;;5049560;28;20382;-62
2023/03/22 07:16:31;;;;;;;7.90;2.83;;;17.90;99.90;;;;;;5048400;28;20728;-60
2023/03/22 07:18:56;;;;;;;8.10;2.80;;;18.00;99.90;;;;;;5049642;28;20414;-60
2023/03/22 07:21:22;;;;;;;6.73;2.60;;;18.30;99.90;;;;;;5048396;28;20381;-60
2023/03/22 07:23:47;;;;;;;8.43;2.60;;;18.60;99.90;;;;;;5048809;28;20455;-60
2023/03/22 07:26:13;;;;;;;8.50;2.70;;;19.00;99.90;;;;;;5048641;28;20468;-60
2023/03/22 07:28:40;;;;;;;6.40;2.60;;;19.40;99.90;;;;;;5048847;28;20500;-60
2023/03/22 07:31:11;;;;;;;7.18;2.83;;;19.70;99.90;;;;;;5048742;28;20779;-63
2023/03/22 07:33:38;;;;;;;7.38;2.90;;;19.80;99.90;;;;;;5067007;28;20470;-60
2023/03/22 07:36:05;;;;;;;8.10;2.72;;;19.70;99.90;;;;;;5069176;28;20479;-60
2023/03/22 07:38:31;;;;;;;8.70;3.80;;;20.40;99.90;;;;;;5066696;28;20411;-61
2023/03/22 07:40:56;;;;;;;9.55;4.65;;;21.10;99.90;;;;;;5052222;28;20409;-62
2023/03/22 07:43:22;;;;;;;9.13;5.35;;;21.90;99.90;;;;;;5056278;28;20393;-61
2023/03/22 07:45:49;;;;;;;7.57;5.00;;;21.60;99.90;;;;;;5052252;28;20385;-61
2023/03/22 07:48:16;;;;;;;8.27;4.70;;;21.40;99.90;;;;;;5052167;28;20382;-61
2023/03/22 07:50:41;;;;;;;8.75;4.72;;;21.00;99.90;;;;;;5052993;28;20381;-60
2023/03/22 07:53:08;;;;;;;7.57;4.65;;;21.40;99.90;;;;;;5052697;28;20382;-63
2023/03/22 07:55:35;;;;;;;6.60;3.75;;;21.40;99.90;;;;;;5052607;28;20380;-61
2023/03/22 07:58:00;;;;;;;7.20;3.75;;;20.80;99.90;;;;;;5052567;28;20421;-61
2023/03/22 08:00:27;;;;;;;7.30;4.00;;;20.00;99.90;;;;;;5052518;28;21283;-60
2023/03/22 08:02:52;;;;;;;7.50;4.00;;;20.10;99.90;;;;;;5052645;28;20370;-60
2023/03/22 08:05:18;;;;;;;7.60;3.70;;;20.50;99.90;;;;;;5052173;28;20392;-60
2023/03/22 08:07:44;;;;;;;6.90;3.70;;;20.10;99.90;;;;;;5052613;28;20415;-59
2023/03/22 08:10:10;;;;;;;8.43;4.30;;;20.70;99.90;;;;;;5052474;28;20389;-63
2023/03/22 08:12:36;;;;;;;7.25;4.22;;;21.50;99.90;;;;;;5052687;28;20385;-60
2023/03/22 08:15:02;;;;;;;6.40;3.47;;;21.00;99.90;;;;;;5052608;28;20788;-59
2023/03/22 08:17:29;;;;;;;7.53;3.67;;;20.70;99.90;;;;;;5051871;28;20449;-60
2023/03/22 08:19:55;;;;;;;6.35;3.22;;;20.40;99.90;;;;;;5052347;28;20373;-60
2023/03/22 08:22:24;;;;;;;8.80;3.33;;;21.00;99.90;;;;;;5051840;28;20381;-60
2023/03/22 08:24:53;;;;;;;7.13;3.40;;;21.10;99.90;;;;;;5052375;28;20924;-60
2023/03/22 08:27:19;;;;;;;7.03;3.40;;;21.30;99.90;;;;;;5051445;28;20405;-60
2023/03/22 08:29:47;;;;;;;6.30;3.50;;;21.00;99.90;;;;;;5052017;28;20402;-60
2023/03/22 08:32:13;;;;;;;8.00;3.70;;;21.60;99.90;;;;;;5051390;28;20425;-61
2023/03/22 08:34:39;;;;;;;9.10;4.80;;;22.50;99.90;;;;;;5052398;28;20433;-60
2023/03/22 08:37:06;;;;;;;8.15;5.90;;;23.60;99.90;;;;;;5051709;28;20758;-60
2023/03/22 08:39:32;;;;;;;6.97;6.07;;;23.90;99.90;;;;;;5051546;28;20438;-60
2023/03/22 08:41:57;;;;;;;8.20;6.20;;;23.40;99.90;;;;;;5052319;28;20390;-61
2023/03/22 08:44:23;;;;;;;7.13;5.70;;;23.30;99.90;;;;;;5051581;28;20388;-61
2023/03/22 08:46:48;;;;;;;8.70;6.40;;;23.80;99.90;;;;;;5052040;28;20374;-61
2023/03/22 08:49:15;;;;;;;7.63;6.20;;;23.80;99.90;;;;;;5051417;28;20378;-63
2023/03/22 08:51:41;;;;;;;8.85;5.80;;;24.10;99.90;;;;;;5051795;28;20476;-61
2023/03/22 08:54:07;;;;;;;6.78;5.93;;;24.30;99.90;;;;;;5052133;28;20535;-62
2023/03/22 08:56:36;;;;;;;7.50;5.80;;;23.90;99.90;;;;;;5051309;28;20412;-61
2023/03/22 08:59:03;;;;;;;6.20;4.80;;;23.40;99.90;;;;;;5051540;28;20397;-61
2023/03/22 09:01:29;;;;;;;7.10;5.90;;;22.70;99.90;;;;;;5050982;28;20374;-61
2023/03/22 09:03:56;;;;;;;6.70;5.80;;;;;;;;;;5051838;28;20473;-61
2023/03/22 09:06:22;;;;;;;8.05;7.20;;;;;;;;;;5050857;28;20862;-61
2023/03/22 09:08:50;;;;;;;9.10;7.40;;;25.30;99.90;;;;;;5051459;28;20384;-61
2023/03/22 09:11:17;;;;;;;8.48;7.30;;;25.60;99.90;;;;;;5050844;28;20450;-61
2023/03/22 09:13:43;;;;;;;8.10;7.40;;;25.20;99.90;;;;;;5051038;28;20786;-63
2023/03/22 09:16:09;;;;;;;7.72;7.03;;;24.40;99.90;;;;;;5051177;28;20388;-65
2023/03/22 09:18:36;;;;;;;9.90;8.10;;;24.50;99.90;;;;;;5051027;28;20413;-61
2023/03/22 09:21:04;;;;;;;7.95;7.10;;;24.20;99.90;;;;;;5051137;28;20385;-61
2023/03/22 09:23:31;;;;;;;9.13;7.80;;;25.20;99.90;;;;;;5050284;28;20385;-61
2023/03/22 09:26:00;;;;;;;7.80;7.10;;;25.60;99.90;;;;;;5051450;28;21104;-62
2023/03/22 09:28:26;;;;;;;8.30;7.40;;;26.20;99.90;;;;;;5050013;28;20798;-61
2023/03/22 09:30:52;;;;;;;8.20;7.40;;;26.10;99.90;;;;;;5051168;28;20389;-61
2023/03/22 09:33:17;;;;;;;6.60;5.80;;;24.90;99.90;;;;;;5050391;28;20481;-61
2023/03/22 09:35:43;;;;;;;7.97;6.23;;;23.70;99.90;;;;;;5051241;28;20427;-63
2023/03/22 09:38:11;;;;;;;7.50;6.50;;;24.10;99.90;;;;;;5050684;28;20452;-64
2023/03/22 09:40:45;;;;;;;6.93;4.95;;;26.10;99.90;;;;;;5050840;28;20408;-62
2023/03/22 09:43:14;;;;;;;8.43;7.63;;;26.60;99.90;;;;;;5050462;28;20455;-64
2023/03/22 09:45:47;;;;;;;8.88;8.07;;;25.20;99.90;;;;;;5050796;28;20567;-62
2023/03/22 09:48:29;;;;;;;8.10;7.30;;;25.50;99.90;;;;;;5049936;28;20381;-64
2023/03/22 09:50:55;;;;;;;9.20;8.40;;;24.10;99.90;;;;;;5050888;28;20372;-61
2023/03/22 09:53:25;;;;;;;9.60;8.80;;;23.70;99.90;;;;;;5050271;28;20439;-62
2023/03/22 09:56:02;;;;;;;8.10;7.30;;;24.30;99.90;;;;;;5050675;28;20378;-62
2023/03/22 09:58:37;;;;;;;7.25;6.50;;;24.90;99.90;;;;;;5031963;28;20861;-62
2023/03/22 10:01:13;;;;;;;8.10;7.30;;;25.20;99.90;;;;;;5051067;28;20377;-62
2023/03/22 10:03:54;;;;;;;7.50;6.70;;;25.20;99.90;;;;;;5049961;28;20418;-62
2023/03/22 10:06:29;;;;;;;7.03;5.80;;;24.50;99.90;;;;;;5050075;28;20476;-62
2023/03/22 10:09:26;;;;;;;7.10;6.40;;;23.30;99.90;;;;;;5049774;28;20484;-61
2023/03/22 10:12:08;;;;;;;5.10;1.30;;;22.50;99.90;;;;;;5050348;28;20527;-61
2023/03/22 10:14:40;;;;;;;5.78;1.08;;;21.80;99.90;;;;;;5049770;28;20385;-62
2023/03/22 10:17:13;;;;;;;7.40;1.17;;;21.00;99.90;;;;;;5050000;28;20413;-61
2023/03/22 10:20:14;;;;;;;5.50;1.10;;;21.00;99.90;;;;;;5050374;28;20381;-61
2023/03/22 10:22:44;;;;;;;5.20;1.30;;;21.80;99.90;;;;;;5050001;28;20894;-61
2023/03/22 10:25:17;;;;;;;5.43;1.10;;;23.30;99.90;;;;;;5049737;28;20390;-64
2023/03/22 10:27:45;;;;;;;5.10;1.15;;;23.90;99.90;;;;;;5049310;28;20878;-61
2023/03/22 10:30:23;;;;;;;4.95;1.00;;;24.90;99.90;;;;;;5049569;28;20914;-64
2023/03/22 10:33:00;;;;;;;5.07;0.90;;;25.30;99.90;;;;;;5050246;28;20389;-61
2023/03/22 10:35:26;;;;;;;5.50;1.20;;;25.30;99.90;;;;;;5049575;28;20370;-61
2023/03/22 10:37:56;;;;;;;4.70;0.90;;;26.10;99.90;;;;;;5049798;28;20402;-61
2023/03/22 10:40:34;;;;;;;5.03;1.00;;;26.60;99.90;;;;;;5049135;28;20446;-61
2023/03/22 10:43:37;;;;;;;4.70;0.98;;;25.60;99.90;;;;;;5032147;28;20440;-62
2023/03/22 10:46:07;;;;;;;5.60;0.98;;;24.50;99.90;;;;;;5044905;28;20468;-61
2023/03/22 10:48:55;;;;;;;5.05;0.90;;;25.00;99.90;;;;;;5048569;28;20467;-61
2023/03/22 10:51:39;;;;;;;5.00;1.20;;;24.60;99.90;;;;;;5038147;28;20416;-61
2023/03/22 10:54:13;;;;;;;5.10;1.20;;;23.60;99.90;;;;;;5049877;28;20421;-61
2023/03/22 10:56:38;;;;;;;5.70;1.10;;;23.80;99.90;;;;;;5034751;28;20395;-62
2023/03/22 10:59:04;;;;;;;5.50;1.30;;;23.40;99.90;;;;;;5029902;28;20488;-61
2023/03/22 11:01:32;;;;;;;6.28;2.08;;;23.20;99.90;;;;;;5029119;28;20907;-61
2023/03/22 11:04:02;;;;;;;6.65;2.40;;;23.20;99.90;;;;;;5044815;28;20478;-61
2023/03/22 11:06:34;;;;;;;5.90;1.00;;;23.00;99.90;;;;;;5049412;28;20389;-61
2023/03/22 11:09:11;;;;;;;6.22;1.40;;;23.20;99.90;;;;;;5049608;28;20385;-61
2023/03/22 11:11:49;;;;;;;5.00;1.30;;;23.00;99.90;;;;;;5049563;28;21125;-60
2023/03/22 11:14:26;;;;;;;5.30;1.40;;;23.20;99.90;;;;;;5047782;28;20478;-60
2023/03/22 11:16:58;;;;;;;7.00;1.48;;;22.60;99.90;;;;;;5049382;28;20436;-60
2023/03/22 11:19:55;;;;;;;5.43;1.20;;;22.80;99.90;;;;;;5048685;28;20810;-60
2023/03/22 11:22:39;;;;;;;5.13;1.20;;;22.80;99.90;;;;;;5029298;28;20479;-61
2023/03/22 11:25:14;;;;;;;5.80;1.30;;;23.50;99.90;;;;;;5049397;28;20385;-61
2023/03/22 11:27:55;;;;;;;5.25;1.20;;;24.00;99.90;;;;;;5049694;28;20873;-60
2023/03/22 11:30:22;;;;;;;5.10;1.10;;;24.70;99.90;;;;;;5047439;28;20434;-63
2023/03/22 11:32:48;;;;;;;7.17;1.50;;;25.20;99.90;;;;;;5056782;28;20392;-61
2023/03/22 11:35:19;;;;;;;5.60;1.20;;;25.60;99.90;;;;;;5061300;28;20387;-62
2023/03/22 11:37:53;;;;;;;5.70;1.05;;;25.00;99.90;;;;;;5065832;28;20494;-61
2023/03/22 11:40:27;;;;;;;5.97;1.50;;;24.50;99.90;;;;;;5048530;28;20480;-61
2023/03/22 11:42:55;;;;;;;4.90;1.20;;;24.50;99.90;;;;;;5049231;28;20393;-61
2023/03/22 11:45:30;;;;;;;5.45;1.30;;;24.00;99.90;;;;;;5048320;28;20373;-61
2023/03/22 11:48:05;;;;;;;5.40;1.20;;;23.90;99.90;;;;;;5048955;28;20435;-61
2023/03/22 11:50:35;;;;;;;6.60;1.23;;;23.40;99.90;;;;;;5048312;28;21005;-61
2023/03/22 11:53:02;;;;;;;5.60;1.40;;;22.80;99.90;;;;;;5049358;28;20389;-61
2023/03/22 11:55:35;;;;;;;5.13;1.10;;;22.40;99.90;;;;;;5048929;28;20389;-61
2023/03/22 11:58:05;;;;;;;6.33;1.00;;;22.60;99.90;;;;;;5048599;28;20429;-61
2023/03/22 12:00:36;;;;;;;5.50;1.05;;;22.70;99.90;;;;;;5051688;28;20475;-61
2023/03/22 12:03:06;;;;;;;5.50;1.10;;;22.70;99.90;;;;;;5068942;28;20459;-61
2023/03/22 12:05:36;;;;;;;5.22;1.00;;;22.30;99.90;;;;;;5059835;28;20519;-61
2023/03/22 12:08:18;;;;;;;4.80;0.90;;;22.90;99.90;;;;;;5048892;28;20465;-61
2023/03/22 12:10:51;;;;;;;5.78;1.35;;;23.10;99.90;;;;;;5047671;28;20386;-60
2023/03/22 12:13:20;;;;;;;6.47;3.45;;;22.60;99.90;;;;;;5048268;28;20455;-60
2023/03/22 12:15:51;;;;;;;8.77;1.75;;;22.30;99.90;;;;;;5048695;28;20452;-60
2023/03/22 12:18:43;;;;;;;5.05;1.00;;;22.00;99.90;;;;;;5047786;28;20512;-60
2023/03/22 12:21:12;;;;;;;5.57;1.00;;;21.80;99.90;;;;;;5048941;28;20405;-60
2023/03/22 12:23:38;;;;;;;5.10;1.10;;;21.90;99.90;;;;;;5048926;28;20950;-60
2023/03/22 12:26:13;;;;;;;6.00;0.80;;;21.80;99.90;;;;;;5050557;28;20417;-60
2023/03/22 12:29:08;;;;;;;5.15;0.70;;;21.40;99.90;;;;;;5033934;28;20770;-60
2023/03/22 12:32:00;;;;;;;6.53;0.82;;;21.40;99.90;;;;;;5052037;28;20392;-60
2023/03/22 12:34:38;;;;;;;5.80;4.15;;;21.40;99.90;;;;;;5050814;28;20798;-60
2023/03/22 12:37:07;;;;;;;6.22;3.90;;;21.20;99.90;;;;;;5052308;28;20459;-60
2023/03/22 12:39:55;;;;;;;6.10;3.90;;;21.00;99.90;;;;;;5051430;28;20382;-60
2023/03/22 12:42:34;;;;;;;4.97;0.90;;;21.30;99.90;;;;;;5050701;28;20426;-60
2023/03/22 12:45:12;;;;;;;4.70;0.80;;;21.70;99.90;;;;;;5052447;28;20408;-60
2023/03/22 12:47:44;;;;;;;9.55;1.00;;;21.80;99.90;;;;;;5051607;28;20389;-60
2023/03/22 12:50:20;;;;;;;5.60;1.00;;;21.70;99.90;;;;;;5051742;28;20404;-63
2023/03/22 12:52:52;;;;;;;5.30;1.10;;;22.00;99.90;;;;;;5051895;28;20413;-62
2023/03/22 12:55:34;;;;;;;4.88;0.85;;;22.50;99.90;;;;;;5051105;28;20444;-60
2023/03/22 12:58:01;;;;;;;5.43;0.88;;;22.40;99.90;;;;;;5067541;28;20519;-61
2023/03/22 13:00:39;;;;;;;4.90;0.80;;;22.80;99.90;;;;;;5064803;28;20403;-60
2023/03/22 13:03:19;;;;;;;4.75;0.82;;;22.60;99.90;;;;;;5070442;28;20399;-60
2023/03/22 13:05:48;;;;;;;4.68;0.80;;;22.40;99.90;;;;;;5057698;28;20932;-60
2023/03/22 13:08:20;;;;;;;4.30;0.50;;;21.90;99.90;;;;;;5070326;28;20403;-60